createdAt,value
2018-06-19T00:01:19.756Z,8.33
2018-06-19T00:03:47.765Z,8.33
2018-06-19T00:06:16.783Z,9.60
2018-06-19T00:08:44.628Z,9.10
2018-06-19T00:11:12.472Z,8.67
2018-06-19T00:13:40.555Z,8.67
2018-06-19T00:16:08.694Z,8.07
2018-06-19T00:18:40.744Z,9.40
2018-06-19T00:21:10.635Z,8.77
2018-06-19T00:23:38.616Z,8.60
2018-06-19T00:26:06.450Z,7.93
2018-06-19T00:28:35.156Z,9.30
2018-06-19T00:31:03.451Z,8.53
2018-06-19T00:33:31.432Z,8.20
2018-06-19T00:35:59.284Z,9.53
2018-06-19T00:38:26.932Z,8.70
2018-06-19T00:40:54.743Z,8.40
2018-06-19T00:43:23.302Z,8.60
2018-06-19T00:45:51.336Z,7.90
2018-06-19T00:48:19.249Z,7.97
2018-06-19T00:50:47.230Z,7.63
2018-06-19T00:53:15.128Z,8.33
2018-06-19T00:55:42.873Z,8.13
2018-06-19T00:58:10.783Z,9.03
2018-06-19T01:00:38.850Z,8.10
2018-06-19T01:03:06.807Z,8.50
2018-06-19T01:05:34.824Z,7.33
2018-06-19T01:08:02.660Z,6.63
2018-06-19T01:10:30.682Z,8.07
2018-06-19T01:12:58.476Z,7.03
2018-06-19T01:15:26.280Z,7.33
2018-06-19T01:17:54.291Z,9.17
2018-06-19T01:20:22.204Z,8.93
2018-06-19T01:22:50.060Z,9.60
2018-06-19T01:25:17.864Z,8.80
2018-06-19T01:27:46.020Z,9.87
2018-06-19T01:30:13.813Z,9.10
2018-06-19T01:32:41.628Z,8.90
2018-06-19T01:35:09.451Z,9.90
2018-06-19T01:37:37.355Z,11.20
2018-06-19T01:40:05.407Z,9.80
2018-06-19T01:42:33.408Z,10.13
2018-06-19T01:45:01.337Z,10.50
2018-06-19T01:47:29.192Z,11.00
2018-06-19T01:49:57.045Z,11.53
2018-06-19T01:52:24.807Z,12.27
2018-06-19T01:54:52.374Z,12.37
2018-06-19T01:57:20.320Z,10.77
2018-06-19T01:59:48.141Z,9.77
2018-06-19T02:02:15.924Z,10.53
2018-06-19T02:04:43.847Z,9.87
2018-06-19T02:07:11.884Z,11.23
2018-06-19T02:09:39.720Z,10.07
2018-06-19T02:12:07.545Z,12.40
2018-06-19T02:14:35.515Z,9.60
2018-06-19T02:17:04.021Z,11.30
2018-06-19T02:19:32.060Z,10.80
2018-06-19T02:22:00.029Z,11.77
2018-06-19T02:24:27.917Z,10.17
2018-06-19T02:26:55.670Z,10.80
2018-06-19T02:29:23.526Z,10.17
2018-06-19T02:31:51.201Z,12.00
2018-06-19T02:34:18.973Z,11.40
2018-06-19T02:36:46.980Z,9.60
2018-06-19T02:39:14.836Z,12.87
2018-06-19T02:41:42.593Z,11.37
2018-06-19T02:46:44.728Z,11.43
2018-06-19T02:49:13.292Z,10.73
2018-06-19T02:51:41.268Z,10.00
2018-06-19T02:54:09.124Z,11.60
2018-06-19T02:56:36.889Z,11.97
2018-06-19T02:59:04.827Z,11.33
2018-06-19T03:01:32.837Z,12.00
2018-06-19T03:04:00.680Z,13.43
2018-06-19T03:06:28.509Z,11.77
2018-06-19T03:08:56.445Z,11.00
2018-06-19T03:11:24.365Z,11.70
2018-06-19T03:13:52.455Z,11.20
2018-06-19T03:16:20.245Z,10.40
2018-06-19T03:18:48.063Z,11.33
2018-06-19T03:21:15.927Z,12.43
2018-06-19T03:23:43.725Z,12.20
2018-06-19T03:26:11.683Z,12.03
2018-06-19T03:28:39.538Z,12.10
2018-06-19T03:31:07.296Z,11.40
2018-06-19T03:33:35.273Z,11.03
2018-06-19T03:36:02.978Z,11.27
2018-06-19T03:38:30.778Z,11.53
2018-06-19T03:40:58.497Z,11.37
2018-06-19T03:43:26.311Z,12.33
2018-06-19T03:45:54.104Z,12.63
2018-06-19T03:48:21.888Z,12.87
2018-06-19T03:50:49.765Z,12.13
2018-06-19T03:53:17.563Z,12.27
2018-06-19T03:55:45.508Z,12.40
2018-06-19T03:58:13.544Z,12.60
2018-06-19T04:00:41.520Z,13.30
2018-06-19T04:03:09.428Z,14.03
2018-06-19T04:05:37.538Z,12.73
2018-06-19T04:08:05.319Z,13.50
2018-06-19T04:10:33.267Z,12.67
2018-06-19T04:13:01.074Z,13.67
2018-06-19T04:15:28.906Z,13.50
2018-06-19T04:17:56.741Z,13.00
2018-06-19T04:20:24.638Z,14.20
2018-06-19T04:22:52.609Z,14.30
2018-06-19T04:25:20.511Z,14.23
2018-06-19T04:27:48.268Z,14.80
2018-06-19T04:30:16.266Z,13.47
2018-06-19T04:32:44.126Z,13.93
2018-06-19T04:35:12.201Z,14.53
2018-06-19T04:37:40.008Z,14.47
2018-06-19T04:40:07.864Z,13.60
2018-06-19T04:42:35.822Z,14.10
2018-06-19T04:45:03.790Z,14.93
2018-06-19T04:47:31.797Z,13.37
2018-06-19T04:49:59.612Z,15.17
2018-06-19T04:52:27.406Z,14.20
2018-06-19T04:54:55.284Z,12.43
2018-06-19T04:57:23.963Z,14.60
2018-06-19T04:59:51.795Z,13.20
2018-06-19T05:02:19.656Z,15.40
2018-06-19T05:04:47.564Z,14.13
2018-06-19T05:07:15.392Z,13.60
2018-06-19T05:09:43.255Z,14.20
2018-06-19T05:12:10.955Z,13.17
2018-06-19T05:14:38.744Z,14.30
2018-06-19T05:17:06.757Z,13.93
2018-06-19T05:19:34.852Z,14.43
2018-06-19T05:22:02.708Z,14.30
2018-06-19T05:24:30.548Z,13.40
2018-06-19T05:26:59.276Z,13.90
2018-06-19T05:29:27.061Z,14.13
2018-06-19T05:31:54.784Z,13.30
2018-06-19T05:34:22.807Z,11.67
2018-06-19T05:36:50.784Z,13.30
2018-06-19T05:39:18.912Z,12.30
2018-06-19T05:41:46.809Z,13.70
2018-06-19T05:44:14.804Z,12.77
2018-06-19T05:46:42.949Z,12.30
2018-06-19T05:49:10.992Z,14.83
2018-06-19T05:51:38.828Z,14.80
2018-06-19T05:54:07.286Z,13.63
2018-06-19T05:56:35.088Z,12.00
2018-06-19T05:59:02.942Z,12.07
2018-06-19T06:01:30.975Z,15.67
2018-06-19T06:03:58.910Z,14.80
2018-06-19T06:06:26.823Z,14.50
2018-06-19T06:08:54.684Z,13.80
2018-06-19T06:11:22.355Z,15.47
2018-06-19T06:13:50.170Z,14.47
2018-06-19T06:16:18.012Z,13.90
2018-06-19T06:18:45.787Z,14.57
2018-06-19T06:21:13.940Z,13.53
2018-06-19T06:23:41.872Z,13.93
2018-06-19T06:26:09.680Z,13.57
2018-06-19T06:28:37.452Z,14.00
2018-06-19T06:31:05.329Z,11.70
2018-06-19T06:33:33.101Z,13.20
2018-06-19T06:36:00.996Z,12.57
2018-06-19T06:38:29.702Z,12.03
2018-06-19T06:40:57.676Z,12.30
2018-06-19T06:43:25.676Z,12.80
2018-06-19T06:45:53.612Z,13.87
2018-06-19T06:48:21.584Z,14.63
2018-06-19T06:50:49.864Z,13.07
2018-06-19T06:53:17.857Z,14.40
2018-06-19T06:55:45.816Z,14.40
2018-06-19T06:58:14.047Z,13.73
2018-06-19T07:00:42.107Z,14.20
2018-06-19T07:03:10.064Z,14.73
2018-06-19T07:05:37.993Z,14.10
2018-06-19T07:08:05.901Z,13.43
2018-06-19T07:10:33.932Z,16.40
2018-06-19T07:13:01.777Z,15.80
2018-06-19T07:15:29.634Z,16.30
2018-06-19T07:17:57.458Z,14.87
2018-06-19T07:20:25.556Z,15.10
2018-06-19T07:22:53.432Z,17.80
2018-06-19T07:25:21.386Z,15.50
2018-06-19T07:27:49.192Z,18.40
2018-06-19T07:30:17.183Z,16.50
2018-06-19T07:32:45.137Z,15.50
2018-06-19T07:35:13.333Z,14.80
2018-06-19T07:37:41.396Z,12.93
2018-06-19T07:40:09.253Z,11.50
2018-06-19T07:42:37.008Z,13.13
2018-06-19T07:45:04.894Z,11.93
2018-06-19T07:47:33.465Z,10.87
2018-06-19T07:50:01.257Z,10.30
2018-06-19T07:52:29.264Z,10.27
2018-06-19T07:54:57.215Z,8.57
2018-06-19T07:57:25.160Z,8.70
2018-06-19T07:59:53.185Z,8.07
2018-06-19T08:02:22.329Z,7.43
2018-06-19T08:04:50.212Z,8.17
2018-06-19T08:07:17.885Z,7.90
2018-06-19T08:09:45.672Z,7.07
2018-06-19T08:12:13.512Z,7.43
2018-06-19T08:14:41.314Z,7.03
2018-06-19T08:17:09.145Z,7.97
2018-06-19T08:19:37.252Z,6.70
2018-06-19T08:22:05.085Z,5.77
2018-06-19T08:24:32.895Z,6.03
2018-06-19T08:27:00.855Z,6.83
2018-06-19T08:29:28.753Z,6.33
2018-06-19T08:31:56.797Z,6.60
2018-06-19T08:34:24.667Z,6.90
2018-06-19T08:36:52.484Z,7.03
2018-06-19T08:39:20.408Z,6.90
2018-06-19T08:41:48.407Z,7.17
2018-06-19T08:44:16.391Z,7.03
2018-06-19T08:46:44.321Z,7.10
2018-06-19T08:49:12.960Z,6.00
2018-06-19T08:51:40.829Z,7.63
2018-06-19T08:54:08.821Z,6.33
2018-06-19T08:56:37.009Z,6.70
2018-06-19T08:59:04.868Z,7.80
2018-06-19T09:01:33.416Z,7.57
2018-06-19T09:04:01.344Z,6.73
2018-06-19T09:06:29.269Z,6.40
2018-06-19T09:08:56.924Z,6.67
2018-06-19T09:11:24.739Z,6.90
2018-06-19T09:13:52.628Z,6.53
2018-06-19T09:16:20.587Z,7.20
2018-06-19T09:18:48.635Z,6.17
2018-06-19T09:21:16.522Z,8.10
2018-06-19T09:23:44.465Z,5.80
2018-06-19T09:26:12.870Z,6.50
2018-06-19T09:28:40.909Z,6.50
2018-06-19T09:31:08.684Z,6.53
2018-06-19T09:33:36.309Z,6.63
2018-06-19T09:36:04.042Z,6.40
2018-06-19T09:38:31.725Z,6.27
2018-06-19T09:40:59.788Z,6.90
2018-06-19T09:43:27.780Z,7.33
2018-06-19T09:45:55.732Z,7.00
2018-06-19T09:48:23.724Z,6.43
2018-06-19T09:50:51.656Z,3.30
2018-06-19T09:53:19.633Z,5.10
2018-06-19T09:55:47.561Z,5.20
2018-06-19T09:58:15.508Z,5.70
2018-06-19T10:00:43.253Z,6.37
2018-06-19T10:03:11.301Z,6.03
2018-06-19T10:05:39.099Z,5.33
2018-06-19T10:08:06.746Z,4.07
2018-06-19T10:10:34.587Z,5.27
2018-06-19T10:13:02.524Z,5.67
2018-06-19T10:15:30.361Z,5.57
2018-06-19T10:17:58.220Z,6.20
2018-06-19T10:20:26.140Z,5.87
2018-06-19T10:22:54.375Z,5.93
2018-06-19T10:25:22.336Z,5.30
2018-06-19T10:27:50.387Z,6.93
2018-06-19T10:30:18.937Z,5.80
2018-06-19T10:32:47.142Z,5.50
2018-06-19T10:35:14.908Z,5.40
2018-06-19T10:37:42.895Z,4.97
2018-06-19T10:40:10.925Z,5.00
2018-06-19T10:42:38.824Z,5.60
2018-06-19T10:45:06.828Z,5.00
2018-06-19T10:47:34.754Z,6.47
2018-06-19T10:50:02.601Z,5.97
2018-06-19T10:52:30.275Z,5.43
2018-06-19T10:54:58.110Z,5.90
2018-06-19T10:57:26.069Z,4.97
2018-06-19T10:59:53.892Z,5.43
2018-06-19T11:02:21.760Z,5.37
2018-06-19T11:04:49.665Z,4.80
2018-06-19T11:07:21.820Z,4.50
2018-06-19T11:09:49.491Z,3.30
2018-06-19T11:12:17.080Z,4.97
2018-06-19T11:14:44.856Z,3.33
2018-06-19T11:17:12.404Z,3.40
2018-06-19T11:19:40.172Z,3.53
2018-06-19T11:22:07.985Z,3.10
2018-06-19T11:24:35.773Z,3.40
2018-06-19T11:27:03.511Z,3.27
2018-06-19T11:29:31.502Z,3.73
2018-06-19T11:31:59.433Z,2.30
2018-06-19T11:34:27.220Z,3.40
2018-06-19T11:36:55.060Z,2.27
2018-06-19T11:39:22.862Z,2.70
2018-06-19T11:41:50.886Z,2.40
2018-06-19T11:44:18.780Z,2.40
2018-06-19T11:46:46.677Z,1.00
2018-06-19T11:49:14.388Z,1.87
2018-06-19T11:51:42.423Z,1.77
2018-06-19T11:54:10.341Z,1.77
2018-06-19T11:56:38.402Z,1.40
2018-06-19T11:59:06.205Z,1.70
2018-06-19T12:01:34.008Z,1.10
2018-06-19T12:04:02.016Z,1.13
2018-06-19T12:06:29.940Z,0.70
2018-06-19T12:08:57.931Z,1.30
2018-06-19T12:11:25.942Z,1.50
2018-06-19T12:13:54.181Z,1.37
2018-06-19T12:16:22.203Z,0.73
2018-06-19T12:18:50.029Z,1.33
2018-06-19T12:21:17.961Z,1.47
2018-06-19T12:23:45.690Z,1.40
2018-06-19T12:26:13.651Z,1.70
2018-06-19T12:28:41.452Z,1.80
2018-06-19T12:31:09.356Z,1.60
2018-06-19T12:33:37.197Z,1.60
2018-06-19T12:36:05.341Z,1.90
2018-06-19T12:38:33.104Z,1.33
2018-06-19T12:41:00.984Z,1.57
2018-06-19T12:43:28.724Z,1.43
2018-06-19T12:45:56.589Z,1.40
2018-06-19T12:48:24.401Z,1.30
2018-06-19T12:51:57.346Z,1.03
2018-06-19T12:55:30.729Z,1.60
2018-06-19T12:57:58.791Z,1.37
2018-06-19T13:00:26.780Z,1.70
2018-06-19T13:03:00.545Z,1.63
2018-06-19T13:05:33.761Z,1.50
2018-06-19T13:08:01.652Z,1.53
2018-06-19T13:10:29.284Z,1.13
2018-06-19T13:13:28.491Z,2.10
2018-06-19T13:15:56.615Z,1.20
2018-06-19T13:18:29.931Z,1.70
2018-06-19T13:20:57.749Z,1.57
2018-06-19T13:23:25.826Z,1.73
2018-06-19T13:25:53.820Z,1.73
2018-06-19T13:28:22.909Z,1.50
2018-06-19T13:30:55.971Z,1.70
2018-06-19T13:33:23.843Z,1.80
2018-06-19T13:35:51.695Z,1.73
2018-06-19T13:38:19.509Z,1.80
2018-06-19T13:41:02.136Z,1.60
2018-06-19T13:43:35.447Z,1.10
2018-06-19T13:46:03.363Z,1.70
2018-06-19T13:48:31.335Z,1.93
2018-06-19T13:50:59.376Z,1.40
2018-06-19T13:53:27.151Z,1.50
2018-06-19T13:56:00.904Z,1.53
2018-06-19T13:58:28.742Z,1.93
2018-06-19T14:00:56.417Z,2.00
2018-06-19T14:03:24.455Z,1.70
2018-06-19T14:05:52.216Z,1.63
2018-06-19T14:08:29.012Z,1.23
2018-06-19T14:11:02.043Z,1.63
2018-06-19T14:13:29.856Z,1.33
2018-06-19T14:15:57.768Z,1.60
2018-06-19T14:18:25.600Z,1.40
2018-06-19T14:20:53.492Z,1.70
2018-06-19T14:23:21.407Z,1.83
2018-06-19T14:25:49.227Z,2.30
2018-06-19T14:28:17.748Z,1.83
2018-06-19T14:30:45.505Z,1.70
2018-06-19T14:33:13.318Z,1.80
2018-06-19T14:35:41.323Z,1.90
2018-06-19T14:38:09.280Z,2.77
2018-06-19T14:40:37.196Z,1.80
2018-06-19T14:43:05.168Z,2.03
2018-06-19T14:45:33.149Z,0.90
2018-06-19T14:48:01.128Z,2.10
2018-06-19T14:50:29.210Z,2.10
2018-06-19T14:52:57.099Z,2.10
2018-06-19T14:55:25.057Z,1.70
2018-06-19T14:57:52.924Z,1.40
2018-06-19T15:00:20.716Z,2.90
2018-06-19T15:02:48.544Z,2.20
2018-06-19T15:05:16.396Z,2.00
2018-06-19T15:07:49.549Z,2.50
2018-06-19T15:10:17.453Z,2.43
2018-06-19T15:12:45.362Z,1.63
2018-06-19T15:15:13.151Z,2.03
2018-06-19T15:17:41.036Z,1.63
2018-06-19T15:20:08.970Z,2.30
2018-06-19T15:22:36.700Z,1.90
2018-06-19T15:25:04.784Z,2.00
2018-06-19T15:27:32.598Z,2.47
2018-06-19T15:30:00.371Z,2.60
2018-06-19T15:32:28.251Z,2.30
2018-06-19T15:34:56.045Z,2.17
2018-06-19T15:37:24.045Z,2.33
2018-06-19T15:39:51.822Z,1.03
2018-06-19T15:42:19.633Z,1.37
2018-06-19T15:44:47.501Z,2.17
2018-06-19T15:47:15.345Z,2.40
2018-06-19T15:49:43.345Z,3.00
2018-06-19T15:52:11.175Z,1.90
2018-06-19T15:54:39.068Z,2.17
2018-06-19T15:57:06.857Z,2.07
2018-06-19T15:59:34.764Z,1.97
2018-06-19T16:02:03.028Z,1.70
2018-06-19T16:04:30.807Z,1.97
2018-06-19T16:06:58.682Z,2.70
2018-06-19T16:09:26.427Z,1.70
2018-06-19T16:11:54.397Z,2.90
2018-06-19T16:14:22.277Z,1.53
2018-06-19T16:16:50.045Z,1.90
2018-06-19T16:19:18.044Z,1.53
2018-06-19T16:21:45.667Z,1.67
2018-06-19T16:24:13.197Z,1.47
2018-06-19T16:26:40.773Z,0.90
2018-06-19T16:29:08.321Z,1.70
2018-06-19T16:31:35.878Z,1.63
2018-06-19T16:34:03.445Z,1.97
2018-06-19T16:36:31.059Z,2.30
2018-06-19T16:38:58.654Z,1.80
2018-06-19T16:41:26.177Z,2.10
2018-06-19T16:43:53.807Z,2.40
2018-06-19T16:46:21.381Z,2.10
2018-06-19T16:48:48.904Z,1.63
2018-06-19T16:51:16.471Z,1.53
2018-06-19T16:53:44.026Z,2.80
2018-06-19T16:56:11.600Z,2.17
2018-06-19T16:58:39.184Z,1.80
2018-06-19T17:01:06.752Z,2.03
2018-06-19T17:03:34.288Z,2.17
2018-06-19T17:06:01.913Z,0.83
2018-06-19T17:08:29.488Z,1.80
2018-06-19T17:10:57.135Z,1.17
2018-06-19T17:13:24.734Z,1.73
2018-06-19T17:15:52.343Z,2.20
2018-06-19T17:18:19.919Z,2.40
2018-06-19T17:20:47.531Z,2.50
2018-06-19T17:23:15.078Z,1.60
2018-06-19T17:25:42.673Z,1.60
2018-06-19T17:28:10.300Z,1.97
2018-06-19T17:30:37.855Z,2.00
2018-06-19T17:33:05.382Z,1.47
2018-06-19T17:35:32.971Z,2.30
2018-06-19T17:38:00.543Z,2.20
2018-06-19T17:40:28.164Z,2.10
2018-06-19T17:42:55.732Z,1.70
2018-06-19T17:45:23.308Z,2.50
2018-06-19T17:47:50.868Z,1.60
2018-06-19T17:50:18.432Z,2.10
2018-06-19T17:52:46.008Z,1.80
2018-06-19T17:55:13.722Z,1.67
2018-06-19T17:57:41.291Z,2.60
2018-06-19T18:00:08.824Z,2.00
2018-06-19T18:02:36.471Z,2.10
2018-06-19T18:05:04.051Z,1.13
2018-06-19T18:07:31.581Z,2.80
2018-06-19T18:09:59.332Z,2.60
2018-06-19T18:12:26.877Z,3.47
2018-06-19T18:14:54.448Z,3.63
2018-06-19T18:17:22.030Z,2.67
2018-06-19T18:19:49.564Z,2.10
2018-06-19T18:22:17.119Z,3.03
2018-06-19T18:24:44.945Z,1.40
2018-06-19T18:27:12.492Z,2.40
2018-06-19T18:29:40.060Z,2.53
2018-06-19T18:32:07.665Z,2.50
2018-06-19T18:34:35.181Z,2.70
2018-06-19T18:37:02.708Z,2.20
2018-06-19T18:39:30.307Z,3.00
2018-06-19T18:41:57.856Z,3.23
2018-06-19T18:44:25.384Z,2.53
2018-06-19T18:46:53.159Z,2.83
2018-06-19T18:49:20.550Z,2.80
2018-06-19T18:51:48.339Z,3.03
2018-06-19T18:54:15.982Z,3.10
2018-06-19T18:56:43.588Z,2.73
2018-06-19T18:59:11.129Z,2.60
2018-06-19T19:01:38.714Z,3.23
2018-06-19T19:04:06.249Z,2.47
2018-06-19T19:06:33.795Z,2.60
2018-06-19T19:09:01.429Z,3.07
2018-06-19T19:11:28.973Z,2.90
2018-06-19T19:13:56.506Z,2.73
2018-06-19T19:16:29.320Z,2.20
2018-06-19T19:19:01.825Z,3.50
2018-06-19T19:21:29.482Z,3.33
2018-06-19T19:23:57.093Z,3.13
2018-06-19T19:26:29.913Z,2.70
2018-06-19T19:29:02.719Z,2.70
2018-06-19T19:31:30.333Z,2.30
2018-06-19T19:33:57.889Z,3.00
2018-06-19T19:36:30.780Z,3.10
2018-06-19T19:39:03.536Z,2.57
2018-06-19T19:41:31.153Z,3.13
2018-06-19T19:43:58.736Z,3.37
2018-06-19T19:48:37.023Z,3.23
2018-06-19T19:51:04.608Z,3.33
2018-06-19T19:53:32.228Z,2.83
2018-06-19T19:58:07.369Z,2.80
2018-06-19T20:00:34.956Z,3.00
2018-06-19T20:03:02.497Z,3.50
2018-06-19T20:05:30.076Z,2.37
2018-06-19T20:07:57.634Z,3.37
2018-06-19T20:10:25.180Z,2.67
2018-06-19T20:12:52.761Z,3.00
2018-06-19T20:15:20.325Z,3.50
2018-06-19T20:17:47.925Z,3.40
2018-06-19T20:20:15.478Z,3.40
2018-06-19T20:22:43.009Z,3.03
2018-06-19T20:25:11.394Z,3.00
2018-06-19T20:27:39.243Z,3.00
2018-06-19T20:30:07.430Z,3.60
2018-06-19T20:32:35.016Z,3.07
2018-06-19T20:35:02.580Z,3.07
2018-06-19T20:37:30.113Z,4.13
2018-06-19T20:39:57.632Z,2.87
2018-06-19T20:42:25.198Z,2.67
2018-06-19T20:44:52.763Z,2.90
2018-06-19T20:47:20.269Z,2.90
2018-06-19T20:49:47.903Z,3.97
2018-06-19T20:52:15.457Z,3.43
2018-06-19T20:54:43.032Z,2.93
2018-06-19T20:57:10.582Z,2.63
2018-06-19T20:59:38.139Z,3.87
2018-06-19T21:02:05.792Z,3.20
2018-06-19T21:04:33.446Z,3.30
2018-06-19T21:07:01.041Z,3.50
2018-06-19T21:09:28.977Z,4.23
2018-06-19T21:11:56.636Z,3.80
2018-06-19T21:14:24.243Z,3.23
2018-06-19T21:16:51.857Z,3.27
2018-06-19T21:19:19.477Z,3.47
2018-06-19T21:21:47.548Z,3.43
2018-06-19T21:24:15.110Z,3.60
2018-06-19T21:26:42.760Z,2.80
2018-06-19T21:29:10.339Z,4.10
2018-06-19T21:31:37.868Z,3.53
2018-06-19T21:34:05.455Z,3.10
2018-06-19T21:36:33.001Z,3.10
2018-06-19T21:39:00.545Z,4.60
2018-06-19T21:41:28.112Z,4.10
2018-06-19T21:43:55.833Z,3.13
2018-06-19T21:46:23.356Z,4.17
2018-06-19T21:48:51.156Z,3.70
2018-06-19T21:51:19.038Z,3.40
2018-06-19T21:53:47.059Z,3.10
2018-06-19T21:56:14.949Z,3.87
2018-06-19T21:58:42.710Z,2.97
2018-06-19T22:01:10.924Z,3.20
2018-06-19T22:03:38.902Z,3.10
2018-06-19T22:06:07.536Z,3.43
2018-06-19T22:08:40.745Z,3.60
2018-06-19T22:11:09.333Z,3.60
2018-06-19T22:13:37.330Z,3.23
2018-06-19T22:16:05.179Z,3.07
2018-06-19T22:18:32.826Z,3.77
2018-06-19T22:21:00.552Z,3.03
2018-06-19T22:23:28.612Z,3.33
2018-06-19T22:25:56.420Z,2.90
2018-06-19T22:28:24.216Z,2.83
2018-06-19T22:30:52.244Z,3.20
2018-06-19T22:33:20.037Z,4.20
2018-06-19T22:35:47.696Z,3.70
2018-06-19T22:38:15.556Z,3.40
2018-06-19T22:40:43.476Z,3.80
2018-06-19T22:43:11.449Z,3.47
2018-06-19T22:45:39.462Z,3.33
2018-06-19T22:48:07.431Z,3.77
2018-06-19T22:50:35.407Z,4.17
2018-06-19T22:53:03.277Z,3.90
2018-06-19T22:55:31.032Z,4.10
2018-06-19T22:57:58.873Z,4.43
2018-06-19T23:00:26.971Z,3.90
2018-06-19T23:02:59.043Z,4.43
2018-06-19T23:05:26.964Z,3.10
2018-06-19T23:07:54.847Z,4.80
2018-06-19T23:10:22.852Z,3.70
2018-06-19T23:12:50.945Z,3.40
2018-06-19T23:15:18.695Z,3.93
2018-06-19T23:17:46.491Z,3.73
2018-06-19T23:20:14.500Z,3.50
2018-06-19T23:22:42.387Z,4.27
2018-06-19T23:25:10.279Z,3.53
2018-06-19T23:27:38.105Z,4.30
2018-06-19T23:30:06.088Z,4.60
2018-06-19T23:32:33.892Z,3.50
2018-06-19T23:35:01.600Z,4.50
2018-06-19T23:37:29.202Z,3.50
2018-06-19T23:39:57.035Z,3.63
2018-06-19T23:42:24.889Z,3.40
2018-06-19T23:44:52.653Z,4.23
2018-06-19T23:47:20.647Z,4.33
2018-06-19T23:49:48.493Z,4.07
2018-06-19T23:52:16.285Z,3.80
2018-06-19T23:54:44.324Z,4.17
2018-06-19T23:57:12.248Z,4.50
2018-06-19T23:59:40.187Z,4.43
